createdAt,value
2023-01-29T00:13:45.449Z,77
2023-01-29T00:42:58.085Z,77
2023-01-29T01:12:14.441Z,76
2023-01-29T01:41:23.636Z,76
2023-01-29T02:10:46.902Z,76
2023-01-29T02:40:05.068Z,76
2023-01-29T03:09:22.638Z,76
2023-01-29T03:38:47.810Z,75
2023-01-29T04:08:05.406Z,76
2023-01-29T04:37:20.976Z,76
2023-01-29T05:06:35.212Z,76
2023-01-29T05:35:50.595Z,76
2023-01-29T06:05:12.779Z,75
2023-01-29T06:34:37.490Z,76
2023-01-29T07:03:56.194Z,76
2023-01-29T07:33:17.520Z,76
2023-01-29T08:02:34.734Z,77
2023-01-29T08:31:51.779Z,77
2023-01-29T09:01:10.196Z,77
2023-01-29T09:30:23.072Z,77
2023-01-29T09:59:42.447Z,78
2023-01-29T10:28:55.761Z,77
2023-01-29T10:58:14.203Z,73
2023-01-29T11:27:38.225Z,73
2023-01-29T11:57:02.782Z,74
2023-01-29T12:26:16.853Z,74
2023-01-29T12:55:25.119Z,72
2023-01-29T13:24:49.917Z,69
2023-01-29T13:53:29.724Z,62
2023-01-29T14:22:47.890Z,66
2023-01-29T14:51:56.753Z,67
2023-01-29T15:21:10.205Z,66
2023-01-29T15:50:27.006Z,68
2023-01-29T16:19:37.737Z,69
2023-01-29T16:48:43.871Z,70
2023-01-29T17:17:53.000Z,71
2023-01-29T17:47:09.148Z,72
2023-01-29T18:16:27.277Z,73
2023-01-29T18:45:37.335Z,75
2023-01-29T19:14:51.834Z,76
2023-01-29T19:44:05.254Z,75
2023-01-29T20:13:21.830Z,76
2023-01-29T20:42:41.940Z,76
2023-01-29T21:12:05.907Z,80
2023-01-29T21:41:24.567Z,78
2023-01-29T22:10:32.381Z,77
2023-01-29T22:39:36.899Z,77
2023-01-29T23:08:50.619Z,78
2023-01-29T23:38:05.267Z,83
